Time;durP1;ratioP1;P1;durP2;ratioP2;P2;SDS_P1;SDS_P2;PMS_P1;PMS_P2;Temp;Humidity;BMP_temperature;BMP_pressure;BME280_temperature;BME280_humidity;BME280_pressure;Samples;Min_cycle;Max_cycle;Signal;HPM_P1;HPM_P2
2020/12/25 00:01:24;;;;;;;;;;;4.10;99.90;;;;;;5028299;28;19925;-72
2020/12/25 00:03:50;;;;;;;;;;;4.20;99.90;;;;;;5022319;28;19971;-72
2020/12/25 00:06:16;;;;;;;;;;;4.20;99.90;;;;;;5021587;28;19926;-72
2020/12/25 00:08:42;;;;;;;;;;;4.20;99.90;;;;;;5012953;28;19926;-72
2020/12/25 00:11:09;;;;;;;;;;;4.20;99.90;;;;;;5014758;28;20389;-72
2020/12/25 00:13:35;;;;;;;;;;;4.10;99.90;;;;;;5012903;28;20321;-72
2020/12/25 00:16:01;;;;;;;;;;;4.10;99.90;;;;;;5010421;28;20497;-73
2020/12/25 00:18:27;;;;;;;;;;;4.20;99.90;;;;;;5013424;28;19925;-72
2020/12/25 00:20:54;;;;;;;;;;;4.10;99.90;;;;;;5017672;28;20122;-72
2020/12/25 00:23:20;;;;;;;;;;;4.10;99.90;;;;;;5013408;28;19925;-72
2020/12/25 00:25:46;;;;;;;;;;;4.10;99.90;;;;;;5012607;28;19933;-72
2020/12/25 00:28:13;;;;;;;;;;;4.10;99.90;;;;;;5028424;28;20453;-72
2020/12/25 00:30:41;;;;;;;;;;;4.10;99.90;;;;;;5020140;28;19964;-71
2020/12/25 00:33:07;;;;;;;;;;;4.10;99.90;;;;;;5014622;28;19932;-72
2020/12/25 00:35:33;;;;;;;;;;;4.10;99.90;;;;;;5014628;28;19925;-71
2020/12/25 00:37:59;;;;;;;;;;;4.10;99.90;;;;;;5014545;28;20386;-71
2020/12/25 00:40:25;;;;;;;;;;;4.20;99.90;;;;;;5014091;28;20279;-71
2020/12/25 00:42:51;;;;;;;;;;;4.20;99.90;;;;;;5014450;28;19933;-72
2020/12/25 00:45:18;;;;;;;;;;;4.20;99.90;;;;;;5014131;28;19972;-72
2020/12/25 00:47:44;;;;;;;;;;;4.20;99.90;;;;;;5014365;28;19971;-72
2020/12/25 00:50:10;;;;;;;;;;;4.10;99.90;;;;;;5014054;28;19929;-72
2020/12/25 00:52:36;;;;;;;;;;;4.20;99.90;;;;;;5014478;28;20389;-72
2020/12/25 00:55:02;;;;;;;;;;;4.20;99.90;;;;;;5014018;28;19926;-72
2020/12/25 00:57:28;;;;;;;;;;;4.10;99.90;;;;;;5014062;28;19925;-72
2020/12/25 00:59:54;;;;;;;;;;;4.10;99.90;;;;;;5013858;28;19979;-71
2020/12/25 01:02:22;;;;;;;;;;;4.20;99.90;;;;;;5012995;28;20386;-71
2020/12/25 01:04:48;;;;;;;;;;;4.10;99.90;;;;;;5014065;28;19995;-72
2020/12/25 01:07:14;;;;;;;;;;;4.20;99.90;;;;;;5014148;28;20378;-71
2020/12/25 01:09:40;;;;;;;;;;;4.10;99.90;;;;;;5023932;28;19929;-72
2020/12/25 01:12:06;;;;;;;;;;;4.10;99.90;;;;;;5033346;28;20385;-72
2020/12/25 01:14:32;;;;;;;;;;;4.10;99.90;;;;;;5015065;28;19925;-72
2020/12/25 01:16:58;;;;;;;;;;;4.10;99.90;;;;;;5014383;28;19933;-72
2020/12/25 01:19:25;;;;;;;;;;;4.10;99.90;;;;;;5013755;28;20378;-72
2020/12/25 01:21:52;;;;;;;;;;;4.10;99.90;;;;;;5013632;28;19948;-72
2020/12/25 01:24:18;;;;;;;;;;;4.10;99.90;;;;;;5013523;28;20386;-72
2020/12/25 01:26:44;;;;;;;;;;;4.10;99.90;;;;;;5017837;28;19925;-72
2020/12/25 01:29:10;;;;;;;;;;;4.10;99.90;;;;;;5033660;28;19983;-71
2020/12/25 01:31:36;;;;;;;;;;;4.10;99.90;;;;;;5032956;28;19929;-72
2020/12/25 01:34:02;;;;;;;;;;;4.10;99.90;;;;;;5033260;28;20405;-71
2020/12/25 01:36:28;;;;;;;;;;;4.10;99.90;;;;;;5033157;28;19987;-71
2020/12/25 01:38:54;;;;;;;;;;;4.10;99.90;;;;;;5033100;28;20385;-71
2020/12/25 01:41:20;;;;;;;;;;;4.10;99.90;;;;;;5026378;28;19925;-72
2020/12/25 01:43:46;;;;;;;;;;;4.10;99.90;;;;;;5013256;28;19926;-72
2020/12/25 01:46:13;;;;;;;;;;;4.10;99.90;;;;;;5013330;28;19930;-70
2020/12/25 01:48:39;;;;;;;;;;;4.00;99.90;;;;;;5013274;28;19925;-69
2020/12/25 01:51:05;;;;;;;;;;;4.00;99.90;;;;;;5012718;28;20409;-69
2020/12/25 01:53:33;;;;;;;;;;;4.00;99.90;;;;;;5013441;28;19979;-69
2020/12/25 01:56:01;;;;;;;;;;;4.10;99.90;;;;;;5012960;28;19925;-69
2020/12/25 01:58:28;;;;;;;;;;;4.00;99.90;;;;;;5013372;28;19979;-69
2020/12/25 02:00:54;;;;;;;;;;;4.00;99.90;;;;;;5012675;28;19933;-69
2020/12/25 02:03:20;;;;;;;;;;;4.00;99.90;;;;;;5012940;28;19926;-69
2020/12/25 02:05:46;;;;;;;;;;;4.00;99.90;;;;;;5032330;28;19929;-69
2020/12/25 02:08:13;;;;;;;;;;;4.00;99.90;;;;;;5032601;28;19933;-69
2020/12/25 02:10:40;;;;;;;;;;;4.00;99.90;;;;;;5017478;28;19925;-70
2020/12/25 02:13:07;;;;;;;;;;;4.00;99.90;;;;;;5012917;28;19929;-69
2020/12/25 02:15:35;;;;;;;;;;;4.00;99.90;;;;;;5012736;28;20301;-69
2020/12/25 02:18:01;;;;;;;;;;;4.00;99.90;;;;;;5012808;28;19929;-69
2020/12/25 02:20:27;;;;;;;;;;;4.10;99.90;;;;;;5012321;28;19952;-69
2020/12/25 02:22:53;;;;;;;;;;;4.00;99.90;;;;;;5012766;28;19925;-69
2020/12/25 02:25:19;;;;;;;;;;;4.00;99.90;;;;;;5025673;28;19925;-69
2020/12/25 02:27:45;;;;;;;;;;;4.00;99.90;;;;;;5016814;28;19940;-69
2020/12/25 02:30:14;;;;;;;;;;;3.90;99.90;;;;;;5031997;28;19925;-69
2020/12/25 02:32:40;;;;;;;;;;;4.00;99.90;;;;;;5032356;28;20063;-69
2020/12/25 02:35:06;;;;;;;;;;;3.90;99.90;;;;;;5032234;28;19975;-69
2020/12/25 02:37:32;;;;;;;;;;;3.90;99.90;;;;;;5029041;28;19925;-69
2020/12/25 02:39:59;;;;;;;;;;;3.90;99.90;;;;;;5012273;28;19926;-69
2020/12/25 02:42:25;;;;;;;;;;;3.90;99.90;;;;;;5012599;28;19932;-70
2020/12/25 02:44:51;;;;;;;;;;;3.80;99.90;;;;;;5012388;28;20388;-69
2020/12/25 02:47:17;;;;;;;;;;;3.80;99.90;;;;;;5012547;28;19926;-70
2020/12/25 02:49:43;;;;;;;;;;;3.80;99.90;;;;;;5011487;28;20462;-68
2020/12/25 02:52:09;;;;;;;;;;;3.80;99.90;;;;;;5012348;28;19925;-68
2020/12/25 02:54:35;;;;;;;;;;;3.80;99.90;;;;;;5013318;28;19929;-68
2020/12/25 02:57:02;;;;;;;;;;;3.80;99.90;;;;;;5012309;28;19929;-68
2020/12/25 02:59:28;;;;;;;;;;;3.80;99.90;;;;;;5012348;28;19925;-68
2020/12/25 03:01:54;;;;;;;;;;;3.80;99.90;;;;;;5011795;28;19926;-68
2020/12/25 03:04:20;;;;;;;;;;;3.80;99.90;;;;;;5012375;28;19925;-68
2020/12/25 03:06:46;;;;;;;;;;;3.80;99.90;;;;;;5023096;28;20310;-68
2020/12/25 03:09:12;;;;;;;;;;;3.70;99.90;;;;;;5031885;28;19932;-68
2020/12/25 03:11:38;;;;;;;;;;;3.70;99.90;;;;;;5031560;28;19932;-68
2020/12/25 03:14:05;;;;;;;;;;;3.70;99.90;;;;;;5032153;28;19929;-68
2020/12/25 03:16:31;;;;;;;;;;;3.70;99.90;;;;;;5031750;28;19967;-68
2020/12/25 03:18:57;;;;;;;;;;;3.70;99.90;;;;;;5031882;28;20401;-68
2020/12/25 03:21:24;;;;;;;;;;;3.70;99.90;;;;;;5031589;28;19932;-69
2020/12/25 03:23:50;;;;;;;;;;;3.60;99.90;;;;;;5027459;28;19925;-68
2020/12/25 03:26:16;;;;;;;;;;;3.60;99.90;;;;;;5013450;28;20024;-69
2020/12/25 03:28:42;;;;;;;;;;;3.50;99.90;;;;;;5015758;28;19925;-68
2020/12/25 03:31:09;;;;;;;;;;;3.50;99.90;;;;;;5015472;28;19925;-68
2020/12/25 03:33:35;;;;;;;;;;;3.50;99.90;;;;;;5015764;28;19988;-68
2020/12/25 03:36:01;;;;;;;;;;;3.50;99.90;;;;;;5034175;28;20377;-69
2020/12/25 03:38:27;;;;;;;;;;;3.50;99.90;;;;;;5035026;28;19948;-68
2020/12/25 03:40:53;;;;;;;;;;;3.50;99.90;;;;;;5034826;28;19925;-68
2020/12/25 03:43:19;;;;;;;;;;;3.40;99.90;;;;;;5035119;28;19980;-68
2020/12/25 03:45:46;;;;;;;;;;;3.50;99.90;;;;;;5035364;28;20297;-68
2020/12/25 03:48:12;;;;;;;;;;;3.40;99.90;;;;;;5035187;28;19925;-68
2020/12/25 03:50:38;;;;;;;;;;;3.50;99.90;;;;;;5034704;28;20405;-69
2020/12/25 03:53:04;;;;;;;;;;;3.40;99.90;;;;;;5035044;28;19929;-68
2020/12/25 03:55:30;;;;;;;;;;;3.40;99.90;;;;;;5034844;28;20378;-68
2020/12/25 03:57:56;;;;;;;;;;;3.40;99.90;;;;;;5035000;28;19925;-69
2020/12/25 04:00:22;;;;;;;;;;;3.40;99.90;;;;;;4995364;28;20283;-69
2020/12/25 04:02:49;;;;;;;;;;;3.40;99.90;;;;;;5002476;28;19925;-69
2020/12/25 04:05:16;;;;;;;;;;;3.40;99.90;;;;;;5015105;28;19926;-69
2020/12/25 04:07:42;;;;;;;;;;;3.40;99.90;;;;;;5015045;28;19933;-69
2020/12/25 04:10:08;;;;;;;;;;;3.40;99.90;;;;;;5014635;28;20325;-69
2020/12/25 04:12:34;;;;;;;;;;;3.30;99.90;;;;;;5015087;28;19925;-68
2020/12/25 04:15:00;;;;;;;;;;;3.40;99.90;;;;;;5014807;28;20016;-69
2020/12/25 04:17:26;;;;;;;;;;;3.30;99.90;;;;;;5015087;28;19936;-69
2020/12/25 04:19:52;;;;;;;;;;;3.30;99.90;;;;;;5014603;28;19926;-69
2020/12/25 04:22:19;;;;;;;;;;;3.40;99.90;;;;;;5014767;28;19925;-68
2020/12/25 04:24:45;;;;;;;;;;;3.40;99.90;;;;;;5014560;28;19925;-69
2020/12/25 04:27:11;;;;;;;;;;;3.30;99.90;;;;;;5014645;28;19929;-68
2020/12/25 04:29:37;;;;;;;;;;;3.30;99.90;;;;;;5026437;28;19936;-68
2020/12/25 04:32:03;;;;;;;;;;;3.30;99.90;;;;;;5034085;28;19933;-69
2020/12/25 04:34:29;;;;;;;;;;;3.40;99.90;;;;;;5034197;28;19925;-69
2020/12/25 04:36:55;;;;;;;;;;;3.40;99.90;;;;;;5034114;28;19926;-68
2020/12/25 04:39:22;;;;;;;;;;;3.40;99.90;;;;;;5034209;28;20396;-69
2020/12/25 04:41:48;;;;;;;;;;;3.40;99.90;;;;;;5034102;28;19925;-69
2020/12/25 04:44:14;;;;;;;;;;;3.30;99.90;;;;;;5034275;28;20450;-70
2020/12/25 04:46:40;;;;;;;;;;;3.30;99.90;;;;;;5034274;28;19929;-69
2020/12/25 04:49:07;;;;;;;;;;;3.30;99.90;;;;;;5033862;28;19925;-69
2020/12/25 04:51:33;;;;;;;;;;;3.20;99.90;;;;;;5033737;28;19925;-69
2020/12/25 04:53:59;;;;;;;;;;;3.20;99.90;;;;;;5034077;28;19991;-69
2020/12/25 04:56:26;;;;;;;;;;;3.30;99.90;;;;;;5033706;28;19926;-69
2020/12/25 04:58:53;;;;;;;;;;;3.20;99.90;;;;;;4994491;28;20386;-69
2020/12/25 05:01:19;;;;;;;;;;;3.20;99.90;;;;;;4994180;28;19937;-69
2020/12/25 05:03:45;;;;;;;;;;;3.20;99.90;;;;;;4994365;28;19969;-68
2020/12/25 05:06:12;;;;;;;;;;;3.20;99.90;;;;;;4994258;28;20394;-69
2020/12/25 05:08:39;;;;;;;;;;;3.20;99.90;;;;;;4994564;28;19925;-69
2020/12/25 05:11:05;;;;;;;;;;;3.30;99.90;;;;;;4994062;28;19926;-69
2020/12/25 05:13:33;;;;;;;;;;;3.30;99.90;;;;;;5013760;28;19972;-69
2020/12/25 05:15:59;;;;;;;;;;;3.40;99.90;;;;;;5013906;28;19925;-69
2020/12/25 05:18:28;;;;;;;;;;;3.40;99.90;;;;;;5013784;28;19926;-69
2020/12/25 05:20:54;;;;;;;;;;;3.30;99.90;;;;;;5013264;28;19932;-69
2020/12/25 05:23:27;;;;;;;;;;;3.30;99.90;;;;;;5013771;28;19953;-69
2020/12/25 05:25:56;;;;;;;;;;;3.20;99.90;;;;;;5013660;28;20389;-68
2020/12/25 05:28:22;;;;;;;;;;;3.20;99.90;;;;;;5013686;28;19995;-68
2020/12/25 05:30:49;;;;;;;;;;;3.20;99.90;;;;;;5014244;28;20432;-68
2020/12/25 05:33:15;;;;;;;;;;;3.10;99.90;;;;;;5013652;28;19968;-68
2020/12/25 05:35:41;;;;;;;;;;;3.10;99.90;;;;;;5013390;28;19926;-68
2020/12/25 05:38:10;;;;;;;;;;;3.10;99.90;;;;;;5013339;28;19976;-68
2020/12/25 05:40:43;;;;;;;;;;;3.10;99.90;;;;;;5013112;28;19925;-69
2020/12/25 05:43:09;;;;;;;;;;;3.10;99.90;;;;;;5013177;28;19925;-68
2020/12/25 05:45:39;;;;;;;;;;;3.10;99.90;;;;;;5019500;28;19925;-68
2020/12/25 05:48:06;;;;;;;;;;;3.10;99.90;;;;;;5032779;28;19932;-68
2020/12/25 05:50:32;;;;;;;;;;;3.10;99.90;;;;;;5032316;28;19925;-68
2020/12/25 05:52:58;;;;;;;;;;;3.10;99.90;;;;;;5033017;28;19979;-69
2020/12/25 05:55:25;;;;;;;;;;;3.10;99.90;;;;;;5032659;28;19948;-68
2020/12/25 05:57:52;;;;;;;;;;;3.10;99.90;;;;;;5032828;28;20330;-68
2020/12/25 06:00:19;;;;;;;;;;;3.20;99.90;;;;;;5032058;28;19925;-68
2020/12/25 06:02:45;;;;;;;;;;;3.20;99.90;;;;;;5032942;28;19932;-69
2020/12/25 06:05:12;;;;;;;;;;;3.10;99.90;;;;;;5032686;28;19925;-68
2020/12/25 06:07:42;;;;;;;;;;;3.10;99.90;;;;;;5032650;28;19972;-68
2020/12/25 06:10:09;;;;;;;;;;;3.20;99.90;;;;;;5014897;28;19925;-69
2020/12/25 06:12:37;;;;;;;;;;;3.20;99.90;;;;;;5012874;28;19925;-69
2020/12/25 06:15:04;;;;;;;;;;;3.20;99.90;;;;;;5029026;28;20370;-69
2020/12/25 06:17:32;;;;;;;;;;;3.20;99.90;;;;;;5032808;28;19968;-69
2020/12/25 06:20:00;;;;;;;;;;;3.10;99.90;;;;;;5032150;28;20397;-69
2020/12/25 06:22:28;;;;;;;;;;;3.10;99.90;;;;;;5032436;28;19925;-68
2020/12/25 06:24:56;;;;;;;;;;;3.10;99.90;;;;;;5032334;28;20388;-69
2020/12/25 06:27:25;;;;;;;;;;;3.20;99.90;;;;;;5032324;28;19971;-69
2020/12/25 06:29:53;;;;;;;;;;;3.20;99.90;;;;;;5031813;28;19925;-69
2020/12/25 06:32:19;;;;;;;;;;;3.10;99.90;;;;;;5032431;28;19932;-69
2020/12/25 06:34:46;;;;;;;;;;;3.10;99.90;;;;;;5032270;28;20405;-69
2020/12/25 06:37:13;;;;;;;;;;;3.10;99.90;;;;;;5032398;28;19932;-69
2020/12/25 06:39:46;;;;;;;;;;;3.10;99.90;;;;;;5032267;28;19929;-69
2020/12/25 06:42:12;;;;;;;;;;;3.10;99.90;;;;;;5024535;28;19932;-69
2020/12/25 06:44:41;;;;;;;;;;;3.10;99.90;;;;;;5012662;28;19925;-69
2020/12/25 06:47:09;;;;;;;;;;;3.10;99.90;;;;;;5012652;28;20003;-69
2020/12/25 06:49:36;;;;;;;;;;;3.10;99.90;;;;;;5012481;28;20027;-69
2020/12/25 06:52:02;;;;;;;;;;;3.10;99.90;;;;;;5012131;28;19960;-69
2020/12/25 06:54:38;;;;;;;;;;;3.00;99.90;;;;;;5012249;28;19926;-70
2020/12/25 06:57:05;;;;;;;;;;;3.00;99.90;;;;;;4992986;28;19926;-68
2020/12/25 06:59:31;;;;;;;;;;;3.00;99.90;;;;;;5017910;28;20348;-68
2020/12/25 07:02:00;;;;;;;;;;;3.00;99.90;;;;;;5034498;28;19929;-68
2020/12/25 07:04:26;;;;;;;;;;;3.00;99.90;;;;;;5035584;28;19968;-69
2020/12/25 07:06:54;;;;;;;;;;;3.00;99.90;;;;;;5035980;28;19948;-68
2020/12/25 07:09:20;;;;;;;;;;;3.00;99.90;;;;;;5035851;28;19929;-68
2020/12/25 07:11:49;;;;;;;;;;;3.00;99.90;;;;;;5017708;28;19925;-68
2020/12/25 07:14:16;;;;;;;;;;;3.00;99.90;;;;;;5015927;28;20390;-68
2020/12/25 07:16:42;;;;;;;;;;;3.00;99.90;;;;;;5015790;28;19948;-68
2020/12/25 07:19:08;;;;;;;;;;;2.90;99.90;;;;;;5030188;28;19956;-68
2020/12/25 07:21:35;;;;;;;;;;;2.90;99.90;;;;;;5035160;28;19925;-69
2020/12/25 07:24:01;;;;;;;;;;;2.90;99.90;;;;;;5035509;28;19926;-68
2020/12/25 07:26:27;;;;;;;;;;;2.90;99.90;;;;;;5035678;28;19936;-68
2020/12/25 07:28:54;;;;;;;;;;;2.90;99.90;;;;;;5035819;28;19932;-68
2020/12/25 07:31:21;;;;;;;;;;;3.00;99.90;;;;;;5035120;28;19987;-69
2020/12/25 07:33:51;;;;;;;;;;;3.00;99.90;;;;;;5020900;28;19944;-68
2020/12/25 07:36:17;;;;;;;;;;;3.00;99.90;;;;;;5015618;28;19930;-68
2020/12/25 07:38:43;;;;;;;;;;;2.90;99.90;;;;;;5015882;28;20374;-68
2020/12/25 07:41:09;;;;;;;;;;;2.80;99.90;;;;;;5015288;28;19933;-68
2020/12/25 07:43:35;;;;;;;;;;;2.70;99.90;;;;;;5015547;28;20305;-68
2020/12/25 07:46:01;;;;;;;;;;;2.70;99.90;;;;;;5017742;28;19933;-68
2020/12/25 07:48:28;;;;;;;;;;;2.70;99.90;;;;;;5035179;28;19929;-68
2020/12/25 07:50:55;;;;;;;;;;;2.70;99.90;;;;;;5032755;28;19925;-68
2020/12/25 07:53:21;;;;;;;;;;;2.60;99.90;;;;;;5015233;28;19926;-68
2020/12/25 07:55:47;;;;;;;;;;;2.70;99.90;;;;;;5015186;28;20418;-68
2020/12/25 07:58:14;;;;;;;;;;;2.70;99.90;;;;;;5015349;28;19932;-70
2020/12/25 08:00:41;;;;;;;;;;;2.80;99.90;;;;;;5014833;28;19952;-68
2020/12/25 08:03:07;;;;;;;;;;;2.80;99.90;;;;;;5015169;28;19984;-68
2020/12/25 08:05:34;;;;;;;;;;;2.90;99.90;;;;;;5014899;28;19944;-68
2020/12/25 08:08:01;;;;;;;;;;;2.90;99.90;;;;;;5015217;28;19930;-72
2020/12/25 08:10:27;;;;;;;;;;;3.00;99.90;;;;;;5014720;28;19937;-73
2020/12/25 08:12:54;;;;;;;;;;;3.10;99.90;;;;;;5014362;28;20279;-74
2020/12/25 08:15:20;;;;;;;;;;;3.10;99.90;;;;;;5025829;28;20301;-73
2020/12/25 08:17:50;;;;;;;;;;;3.20;99.90;;;;;;5034547;28;19933;-72
2020/12/25 08:20:16;;;;;;;;;;;3.20;99.90;;;;;;5034387;28;19967;-73
2020/12/25 08:22:43;;;;;;;;;;;3.30;99.90;;;;;;5034707;28;19925;-73
2020/12/25 08:25:09;;;;;;;;;;;3.30;99.90;;;;;;5034508;28;19925;-73
2020/12/25 08:27:36;;;;;;;;;;;3.30;99.90;;;;;;5034542;28;19929;-73
2020/12/25 08:30:03;;;;;;;;;;;3.30;99.90;;;;;;5033645;28;19925;-72
2020/12/25 08:32:30;;;;;;;;;;;3.30;99.90;;;;;;5033907;28;19925;-72
2020/12/25 08:35:09;;;;;;;;;;;3.40;99.90;;;;;;5033809;28;19932;-74
2020/12/25 08:37:35;;;;;;;;;;;3.30;99.90;;;;;;5033526;28;19948;-74
2020/12/25 08:40:12;;;;;;;;;;;3.30;99.90;;;;;;5033681;28;20381;-74
2020/12/25 08:42:38;;;;;;;;;;;3.40;99.90;;;;;;5017307;28;19929;-74
2020/12/25 08:45:04;;;;;;;;;;;3.40;99.90;;;;;;5013123;28;19926;-73
2020/12/25 08:47:30;;;;;;;;;;;3.40;99.90;;;;;;5014101;28;20334;-73
2020/12/25 08:49:56;;;;;;;;;;;3.40;99.90;;;;;;5014064;28;19926;-73
2020/12/25 08:52:23;;;;;;;;;;;3.40;99.90;;;;;;5014251;28;20560;-73
2020/12/25 08:54:54;;;;;;;;;;;3.40;99.90;;;;;;5013899;28;19925;-73
2020/12/25 08:57:21;;;;;;;;;;;3.40;99.90;;;;;;5014127;28;20019;-74
2020/12/25 08:59:47;;;;;;;;;;;3.40;99.90;;;;;;5013583;28;19933;-73
2020/12/25 09:02:15;;;;;;;;;;;3.40;99.90;;;;;;5013944;28;20310;-73
2020/12/25 09:04:41;;;;;;;;;;;3.40;99.90;;;;;;5013996;28;19925;-72
2020/12/25 09:07:07;;;;;;;;;;;3.50;99.90;;;;;;5013879;28;19960;-73
2020/12/25 09:09:33;;;;;;;;;;;3.50;99.90;;;;;;5018651;28;19925;-74
2020/12/25 09:11:59;;;;;;;;;;;3.50;99.90;;;;;;5033118;28;20450;-73
2020/12/25 09:14:26;;;;;;;;;;;3.50;99.90;;;;;;5016935;28;19926;-72
2020/12/25 09:16:52;;;;;;;;;;;3.50;99.90;;;;;;5013463;28;19925;-74
2020/12/25 09:19:20;;;;;;;;;;;3.50;99.90;;;;;;5013544;28;19937;-74
2020/12/25 09:21:46;;;;;;;;;;;3.60;99.90;;;;;;5013164;28;19925;-73
2020/12/25 09:24:12;;;;;;;;;;;3.60;99.90;;;;;;5012207;28;19932;-69
2020/12/25 09:26:38;;;;;;;;;;;3.60;99.90;;;;;;5013280;28;19932;-69
2020/12/25 09:29:04;;;;;;;;;;;3.70;99.90;;;;;;5013524;28;19926;-69
2020/12/25 09:31:31;;;;;;;;;;;3.70;99.90;;;;;;5013300;28;19929;-70
2020/12/25 09:33:57;;;;;;;;;;;3.70;99.90;;;;;;5026833;28;19929;-69
2020/12/25 09:36:23;;;;;;;;;;;3.70;99.90;;;;;;5033068;28;19932;-70
2020/12/25 09:38:49;;;;;;;;;;;3.80;99.90;;;;;;5031814;28;20298;-69
2020/12/25 09:41:15;;;;;;;;;;;3.80;99.90;;;;;;5031618;28;19933;-70
2020/12/25 09:43:41;;;;;;;;;;;3.80;99.90;;;;;;5032705;28;20301;-70
2020/12/25 09:46:07;;;;;;;;;;;3.90;99.90;;;;;;5013273;28;19936;-70
2020/12/25 09:48:34;;;;;;;;;;;4.20;99.90;;;;;;5013038;28;19925;-70
2020/12/25 09:51:00;;;;;;;;;;;4.60;99.90;;;;;;5012762;28;19993;-71
2020/12/25 09:53:26;;;;;;;;;;;4.70;99.90;;;;;;5024334;28;19933;-71
2020/12/25 09:55:52;;;;;;;;;;;4.80;99.90;;;;;;5024097;28;19932;-70
2020/12/25 09:58:18;;;;;;;;;;;4.80;99.90;;;;;;5013141;28;20340;-70
2020/12/25 10:00:44;;;;;;;;;;;4.70;99.90;;;;;;5012641;28;19925;-73
2020/12/25 10:03:10;;;;;;;;;;;4.80;99.90;;;;;;5013074;28;19930;-71
2020/12/25 10:05:37;;;;;;;;;;;4.90;99.90;;;;;;5012921;28;19980;-73
2020/12/25 10:08:03;;;;;;;;;;;5.00;99.90;;;;;;5012951;28;20448;-71
2020/12/25 10:10:29;;;;;;;;;;;5.00;99.90;;;;;;5012355;28;19925;-71
2020/12/25 10:12:55;;;;;;;;;;;4.90;99.90;;;;;;5012862;28;19929;-71
2020/12/25 10:15:21;;;;;;;;;;;4.80;99.90;;;;;;5013648;28;19926;-70
2020/12/25 10:17:47;;;;;;;;;;;4.70;99.90;;;;;;5032681;28;19929;-73
2020/12/25 10:20:13;;;;;;;;;;;4.70;99.90;;;;;;5032032;28;19932;-72
2020/12/25 10:22:40;;;;;;;;;;;4.70;99.90;;;;;;5032074;28;19924;-70
2020/12/25 10:25:06;;;;;;;;;;;4.80;99.90;;;;;;5028179;28;20309;-74
2020/12/25 10:27:32;;;;;;;;;;;4.80;99.90;;;;;;5032479;28;19925;-74
2020/12/25 10:29:58;;;;;;;;;;;4.80;99.90;;;;;;5032272;28;19947;-74
2020/12/25 10:32:24;;;;;;;;;;;4.80;99.90;;;;;;5032333;28;19968;-74
2020/12/25 10:34:50;;;;;;;;;;;4.80;99.90;;;;;;5032150;28;20297;-74
2020/12/25 10:37:16;;;;;;;;;;;4.80;99.90;;;;;;5032271;28;19925;-74
2020/12/25 10:39:43;;;;;;;;;;;4.70;99.90;;;;;;5031936;28;19925;-74
2020/12/25 10:42:09;;;;;;;;;;;4.80;99.90;;;;;;5031903;28;19925;-74
2020/12/25 10:44:35;;;;;;;;;;;4.80;99.90;;;;;;5032088;28;19933;-74
2020/12/25 10:47:01;;;;;;;;;;;4.80;99.90;;;;;;5033888;28;20378;-73
2020/12/25 10:49:27;;;;;;;;;;;4.80;99.90;;;;;;5033548;28;20431;-73
2020/12/25 10:51:53;;;;;;;;;;;4.80;99.90;;;;;;5032138;28;19925;-74
2020/12/25 10:54:19;;;;;;;;;;;4.80;99.90;;;;;;5032533;28;19975;-73
2020/12/25 10:56:47;;;;;;;;;;;4.70;99.90;;;;;;5031945;28;21396;-73
2020/12/25 10:59:13;;;;;;;;;;;4.70;99.90;;;;;;5032452;28;19925;-73
2020/12/25 11:01:40;;;;;;;;;;;4.70;99.90;;;;;;5031711;28;19936;-73
2020/12/25 11:04:06;;;;;;;;;;;4.70;99.90;;;;;;5031989;28;19925;-73
2020/12/25 11:06:32;;;;;;;;;;;4.70;99.90;;;;;;5031765;28;19925;-73
2020/12/25 11:08:58;;;;;;;;;;;4.60;99.90;;;;;;5031900;28;19979;-74
2020/12/25 11:11:25;;;;;;;;;;;4.60;99.90;;;;;;5031486;28;20377;-74
2020/12/25 11:13:51;;;;;;;;;;;4.70;99.90;;;;;;5032092;28;19943;-74
2020/12/25 11:16:21;;;;;;;;;;;4.60;99.90;;;;;;5032039;28;19933;-74
2020/12/25 11:18:47;;;;;;;;;;;4.60;99.90;;;;;;5032090;28;19929;-74
2020/12/25 11:21:17;;;;;;;;;;;4.50;99.90;;;;;;5031495;28;19996;-74
2020/12/25 11:23:43;;;;;;;;;;;4.60;99.90;;;;;;5031966;28;19932;-74
2020/12/25 11:26:09;;;;;;;;;;;4.60;99.90;;;;;;5031699;28;19925;-74
2020/12/25 11:28:37;;;;;;;;;;;4.50;99.90;;;;;;5031100;28;19929;-74
2020/12/25 11:31:04;;;;;;;;;;;4.60;99.90;;;;;;5030236;28;19925;-74
2020/12/25 11:33:32;;;;;;;;;;;4.60;99.90;;;;;;5031250;28;20258;-74
2020/12/25 11:35:58;;;;;;;;;;;4.70;99.90;;;;;;5031806;28;19929;-74
2020/12/25 11:38:24;;;;;;;;;;;4.60;99.90;;;;;;5032280;28;19933;-74
2020/12/25 11:40:50;;;;;;;;;;;4.70;99.90;;;;;;5031804;28;20369;-74
2020/12/25 11:43:16;;;;;;;;;;;4.70;99.90;;;;;;5032046;28;20293;-74
2020/12/25 11:45:42;;;;;;;;;;;4.60;99.90;;;;;;5031593;28;19979;-73
2020/12/25 11:48:09;;;;;;;;;;;4.50;99.90;;;;;;5034483;28;19995;-73
2020/12/25 11:50:35;;;;;;;;;;;4.50;99.90;;;;;;5034975;28;19932;-74
2020/12/25 11:53:01;;;;;;;;;;;4.50;99.90;;;;;;5035331;28;20389;-74
2020/12/25 11:55:27;;;;;;;;;;;4.60;99.90;;;;;;5035464;28;19933;-73
2020/12/25 11:57:53;;;;;;;;;;;4.50;99.90;;;;;;5035146;28;20344;-74
2020/12/25 12:00:19;;;;;;;;;;;4.60;99.90;;;;;;5034667;28;19925;-74
2020/12/25 12:02:45;;;;;;;;;;;4.50;99.90;;;;;;5034757;28;20287;-74
2020/12/25 12:05:11;;;;;;;;;;;4.50;99.90;;;;;;5034804;28;19925;-74
2020/12/25 12:07:37;;;;;;;;;;;4.50;99.90;;;;;;5035055;28;19940;-74
2020/12/25 12:10:03;;;;;;;;;;;4.50;99.90;;;;;;5034508;28;19925;-75
2020/12/25 12:12:29;;;;;;;;;;;4.50;99.90;;;;;;5034849;28;19925;-74
2020/12/25 12:14:55;;;;;;;;;;;4.50;99.90;;;;;;5035760;28;20305;-74
2020/12/25 12:17:21;;;;;;;;;;;4.50;99.90;;;;;;5035206;28;19925;-75
2020/12/25 12:19:47;;;;;;;;;;;4.50;99.90;;;;;;5034704;28;20304;-74
2020/12/25 12:22:14;;;;;;;;;;;4.50;99.90;;;;;;5034922;28;19925;-73
2020/12/25 12:24:40;;;;;;;;;;;4.60;99.90;;;;;;5034674;28;19929;-74
2020/12/25 12:27:06;;;;;;;;;;;4.60;99.90;;;;;;5034878;28;19925;-75
2020/12/25 12:29:32;;;;;;;;;;;4.60;99.90;;;;;;5034639;28;19931;-73
2020/12/25 12:31:58;;;;;;;;;;;4.50;99.90;;;;;;5034078;28;20293;-74
2020/12/25 12:34:24;;;;;;;;;;;4.50;99.90;;;;;;5034386;28;19971;-74
2020/12/25 12:36:50;;;;;;;;;;;4.50;99.90;;;;;;5034548;28;19933;-74
2020/12/25 12:39:17;;;;;;;;;;;4.50;99.90;;;;;;5034425;28;20279;-74
2020/12/25 12:41:43;;;;;;;;;;;4.50;99.90;;;;;;5034099;28;19925;-74
2020/12/25 12:44:09;;;;;;;;;;;4.50;99.90;;;;;;5034167;28;20389;-73
2020/12/25 12:46:35;;;;;;;;;;;4.40;99.90;;;;;;5034107;28;19925;-75
2020/12/25 12:49:01;;;;;;;;;;;4.40;99.90;;;;;;5034038;28;19929;-74
2020/12/25 12:51:27;;;;;;;;;;;4.40;99.90;;;;;;5033857;28;19932;-75
2020/12/25 12:53:53;;;;;;;;;;;4.30;99.90;;;;;;5034010;28;19925;-74
2020/12/25 12:56:20;;;;;;;;;;;4.30;99.90;;;;;;5033605;28;20373;-73
2020/12/25 12:58:46;;;;;;;;;;;4.20;99.90;;;;;;5033607;28;19925;-74
2020/12/25 13:01:20;;;;;;;;;;;4.20;99.90;;;;;;5033236;28;19932;-74
2020/12/25 13:03:46;;;;;;;;;;;4.10;99.90;;;;;;5033761;28;19994;-74
2020/12/25 13:06:12;;;;;;;;;;;4.00;99.90;;;;;;5033619;28;20381;-74
2020/12/25 13:08:38;;;;;;;;;;;4.00;99.90;;;;;;5033400;28;19929;-75
2020/12/25 13:11:04;;;;;;;;;;;4.00;99.90;;;;;;5033283;28;20278;-74
2020/12/25 13:13:31;;;;;;;;;;;3.90;99.90;;;;;;5033711;28;19932;-74
2020/12/25 13:15:56;;;;;;;;;;;3.90;99.90;;;;;;5033510;28;19925;-75
2020/12/25 13:18:22;;;;;;;;;;;3.90;99.90;;;;;;5033511;28;19932;-74
2020/12/25 13:20:48;;;;;;;;;;;4.00;99.90;;;;;;5033173;28;20443;-74
2020/12/25 13:23:14;;;;;;;;;;;4.00;99.90;;;;;;5033279;28;19941;-74
2020/12/25 13:25:40;;;;;;;;;;;4.00;99.90;;;;;;5033142;28;19929;-74
2020/12/25 13:28:06;;;;;;;;;;;4.00;99.90;;;;;;5033035;28;19928;-74
2020/12/25 13:30:34;;;;;;;;;;;4.10;99.90;;;;;;5034505;28;19952;-74
2020/12/25 13:33:00;;;;;;;;;;;4.10;99.90;;;;;;5032922;28;19925;-74
2020/12/25 13:35:26;;;;;;;;;;;4.10;99.90;;;;;;5033058;28;19973;-74
2020/12/25 13:37:52;;;;;;;;;;;4.10;99.90;;;;;;5033168;28;19978;-74
2020/12/25 13:40:18;;;;;;;;;;;4.10;99.90;;;;;;5032700;28;19929;-74
2020/12/25 13:42:44;;;;;;;;;;;4.00;99.90;;;;;;5032725;28;20385;-73
2020/12/25 13:45:10;;;;;;;;;;;4.00;99.90;;;;;;5032768;28;19925;-73
2020/12/25 13:47:37;;;;;;;;;;;3.90;99.90;;;;;;5032850;28;19986;-73
2020/12/25 13:50:03;;;;;;;;;;;3.90;99.90;;;;;;5032218;28;20416;-73
2020/12/25 13:52:29;;;;;;;;;;;3.80;99.90;;;;;;5032828;28;19932;-73
2020/12/25 13:54:55;;;;;;;;;;;3.80;99.90;;;;;;5032572;28;20289;-73
2020/12/25 13:57:21;;;;;;;;;;;3.80;99.90;;;;;;5032176;28;19934;-73
2020/12/25 13:59:48;;;;;;;;;;;3.70;99.90;;;;;;5032112;28;19925;-73
2020/12/25 14:02:14;;;;;;;;;;;3.60;99.90;;;;;;5032650;28;20027;-73
2020/12/25 14:04:41;;;;;;;;;;;3.60;99.90;;;;;;5032696;28;20325;-72
2020/12/25 14:07:07;;;;;;;;;;;3.50;99.90;;;;;;5032530;28;19925;-73
2020/12/25 14:09:33;;;;;;;;;;;3.50;99.90;;;;;;5032110;28;20408;-73
2020/12/25 14:11:59;;;;;;;;;;;3.50;99.90;;;;;;5032049;28;19929;-73
2020/12/25 14:14:25;;;;;;;;;;;3.50;99.90;;;;;;5032496;28;20011;-73
2020/12/25 14:16:51;;;;;;;;;;;3.50;99.90;;;;;;5032594;28;19987;-73
2020/12/25 14:19:17;;;;;;;;;;;3.50;99.90;;;;;;5032480;28;20378;-73
2020/12/25 14:21:45;;;;;;;;;;;3.40;99.90;;;;;;5031884;28;20409;-73
2020/12/25 14:24:11;;;;;;;;;;;3.40;99.90;;;;;;5032427;28;20034;-73
2020/12/25 14:26:37;;;;;;;;;;;3.30;99.90;;;;;;5032299;28;19925;-74